CheckWX is a tool to help pilots better visualize weather data.  It is not intended as a substitute for an official pre-flight weather briefing.

06:43:41 UTC

KHRJ METAR
Harnett Regional Jetport Airport
Erwin, North Carolina, USA
Current

24 mins ago

KHRJ 230620Z AUTO 00000KT 10SM CLR 12/12 A3012 RMK AO2 T01150115
Observed
Apr-23 @ 06:20 UTC
Visibility
10 SM
Flight Rules
VFR
Cloud Levels
  • Clear skies
Temperature
12°C / 54°F
Dewpoint
12°C / 54°F
Humidity
100%
Altimeter
30.12" Hg
Pressure
1020.02 hPa
Previous

44 mins ago

KHRJ 230600Z AUTO 00000KT 10SM CLR 12/12 A3013 RMK AO2 T01150115
Observed
Apr-23 @ 06:00 UTC
Visibility
10 SM
Flight Rules
VFR
Cloud Levels
  • Clear skies
Temperature
12°C / 54°F
Dewpoint
12°C / 54°F
Humidity
100%
Altimeter
30.13" Hg
Pressure
1020.32 hPa
Previous

1 hour ago

KHRJ 230540Z AUTO 00000KT 10SM CLR 12/12 A3013 RMK AO2 T01190119
Observed
Apr-23 @ 05:40 UTC
Visibility
10 SM
Flight Rules
VFR
Cloud Levels
  • Clear skies
Temperature
12°C / 54°F
Dewpoint
12°C / 54°F
Humidity
100%
Altimeter
30.13" Hg
Pressure
1020.32 hPa